createdAt,value
2024-02-02T00:00:59.895Z,101681.09
2024-02-02T00:03:26.950Z,101702.38
2024-02-02T00:05:53.918Z,101680.41
2024-02-02T00:08:22.283Z,101682.06
2024-02-02T00:10:48.940Z,101693.91
2024-02-02T00:13:15.946Z,101691.47
2024-02-02T00:15:42.634Z,101683.88
2024-02-02T00:18:09.739Z,101707.50
2024-02-02T00:20:36.508Z,101699.84
2024-02-02T00:23:03.173Z,101708.28
2024-02-02T00:25:29.935Z,101690.69
2024-02-02T00:27:56.852Z,101681.34
2024-02-02T00:30:23.559Z,101689.88
2024-02-02T00:32:50.393Z,101685.78
2024-02-02T00:35:17.504Z,101684.91
2024-02-02T00:37:45.736Z,101701.81
2024-02-02T00:40:12.929Z,101695.91
2024-02-02T00:42:39.658Z,101703.56
2024-02-02T00:45:07.093Z,101701.75
2024-02-02T00:47:33.837Z,101685.72
2024-02-02T00:50:01.173Z,101699.19
2024-02-02T00:52:28.330Z,101671.28
2024-02-02T00:54:55.645Z,101684.78
2024-02-02T00:57:22.357Z,101676.34
2024-02-02T00:59:51.591Z,101693.13
2024-02-02T01:02:19.034Z,101673.63
2024-02-02T01:04:45.792Z,101685.50
2024-02-02T01:07:15.268Z,101675.34
2024-02-02T01:09:41.970Z,101676.22
2024-02-02T01:12:10.265Z,101684.63
2024-02-02T01:14:39.283Z,101649.00
2024-02-02T01:17:06.871Z,101659.09
2024-02-02T01:19:33.651Z,101659.88
2024-02-02T01:22:00.447Z,101652.25
2024-02-02T01:24:28.215Z,101661.41
2024-02-02T01:26:54.977Z,101659.81
2024-02-02T01:29:22.424Z,101665.66
2024-02-02T01:31:49.585Z,101675.78
2024-02-02T01:34:16.406Z,101679.13
2024-02-02T01:36:43.538Z,101659.69
2024-02-02T01:39:12.604Z,101652.09
2024-02-02T01:41:39.695Z,101635.41
2024-02-02T01:44:07.269Z,101649.69
2024-02-02T01:46:34.230Z,101648.78
2024-02-02T01:49:01.208Z,101669.06
2024-02-02T01:51:28.300Z,101662.31
2024-02-02T01:53:55.307Z,101661.63
2024-02-02T01:56:22.138Z,101656.41
2024-02-02T01:58:48.960Z,101659.81
2024-02-02T02:01:15.753Z,101667.50
2024-02-02T02:03:42.509Z,101675.06
2024-02-02T02:06:10.025Z,101669.06
2024-02-02T02:08:37.159Z,101649.63
2024-02-02T02:11:04.056Z,101672.44
2024-02-02T02:13:31.944Z,101658.91
2024-02-02T02:15:58.607Z,101674.19
2024-02-02T02:18:25.726Z,101702.16
2024-02-02T02:20:55.500Z,101683.38
2024-02-02T02:23:22.243Z,101693.53
2024-02-02T02:25:48.886Z,101673.19
2024-02-02T02:28:15.918Z,101666.44
2024-02-02T02:30:46.008Z,101662.16
2024-02-02T02:33:13.174Z,101653.75
2024-02-02T02:35:39.932Z,101662.22
2024-02-02T02:38:06.605Z,101662.28
2024-02-02T02:40:33.275Z,101682.59
2024-02-02T02:43:00.176Z,101664.75
2024-02-02T02:45:27.002Z,101646.16
2024-02-02T02:47:53.872Z,101651.28
2024-02-02T02:50:20.613Z,101640.25
2024-02-02T02:52:47.614Z,101650.41
2024-02-02T02:55:14.385Z,101630.94
2024-02-02T02:57:41.267Z,101621.72
2024-02-02T03:00:10.975Z,101628.44
2024-02-02T03:02:37.800Z,101603.09
2024-02-02T03:05:05.127Z,101613.22
2024-02-02T03:07:31.828Z,101618.38
2024-02-02T03:09:58.839Z,101603.00
2024-02-02T03:12:25.517Z,101631.91
2024-02-02T03:14:52.263Z,101641.16
2024-02-02T03:17:18.913Z,101626.06
2024-02-02T03:19:46.507Z,101621.84
2024-02-02T03:22:13.222Z,101615.94
2024-02-02T03:24:39.965Z,101617.63
2024-02-02T03:27:06.726Z,101623.66
2024-02-02T03:29:33.734Z,101626.13
2024-02-02T03:32:00.622Z,101629.59
2024-02-02T03:34:27.464Z,101608.53
2024-02-02T03:36:54.191Z,101619.69
2024-02-02T03:39:21.945Z,101633.38
2024-02-02T03:41:48.639Z,101622.31
2024-02-02T03:44:15.423Z,101619.00
2024-02-02T03:46:42.101Z,101630.16
2024-02-02T03:49:09.438Z,101637.72
2024-02-02T03:51:36.257Z,101648.72
2024-02-02T03:54:03.279Z,101642.91
2024-02-02T03:56:30.692Z,101637.16
2024-02-02T03:58:57.967Z,101641.41
2024-02-02T04:01:24.754Z,101633.84
2024-02-02T04:03:51.826Z,101617.16
2024-02-02T04:06:19.090Z,101622.13
2024-02-02T04:08:45.772Z,101639.97
2024-02-02T04:11:12.870Z,101635.63
2024-02-02T04:13:39.549Z,101639.09
2024-02-02T04:16:06.663Z,101634.78
2024-02-02T04:18:33.473Z,101630.38
2024-02-02T04:21:00.214Z,101618.59
2024-02-02T04:23:26.936Z,101634.69
2024-02-02T04:25:53.628Z,101627.13
2024-02-02T04:28:20.276Z,101638.16
2024-02-02T04:30:47.497Z,101637.19
2024-02-02T04:33:14.698Z,101627.06
2024-02-02T04:35:41.464Z,101637.25
2024-02-02T04:38:08.146Z,101645.56
2024-02-02T04:40:34.829Z,101616.00
2024-02-02T04:43:01.994Z,101633.75
2024-02-02T04:45:29.887Z,101609.94
2024-02-02T04:47:57.035Z,101632.66
2024-02-02T04:50:26.916Z,101634.44
2024-02-02T04:52:53.946Z,101636.75
2024-02-02T04:55:20.620Z,101629.19
2024-02-02T04:57:47.712Z,101632.47
2024-02-02T05:00:15.081Z,101638.53
2024-02-02T05:02:41.789Z,101597.75
2024-02-02T05:05:08.681Z,101613.75
2024-02-02T05:07:38.503Z,101622.25
2024-02-02T05:10:08.569Z,101609.47
2024-02-02T05:12:35.800Z,101619.72
2024-02-02T05:15:03.265Z,101608.72
2024-02-02T05:17:30.541Z,101615.53
2024-02-02T05:19:57.311Z,101613.75
2024-02-02T05:22:24.404Z,101605.31
2024-02-02T05:24:51.227Z,101610.28
2024-02-02T05:27:18.405Z,101592.47
2024-02-02T05:29:46.187Z,101584.94
2024-02-02T05:32:13.014Z,101602.53
2024-02-02T05:34:39.872Z,101594.19
2024-02-02T05:37:06.668Z,101600.00
2024-02-02T05:39:33.762Z,101609.38
2024-02-02T05:42:01.417Z,101573.69
2024-02-02T05:44:28.321Z,101576.19
2024-02-02T05:46:54.979Z,101585.59
2024-02-02T05:49:22.121Z,101579.63
2024-02-02T05:51:49.108Z,101585.50
2024-02-02T05:54:15.857Z,101573.53
2024-02-02T05:56:42.527Z,101580.38
2024-02-02T05:59:09.546Z,101577.78
2024-02-02T06:01:36.302Z,101557.47
2024-02-02T06:04:03.440Z,101560.91
2024-02-02T06:06:30.407Z,101559.94
2024-02-02T06:08:59.801Z,101566.66
2024-02-02T06:11:27.301Z,101557.41
2024-02-02T06:13:57.330Z,101564.97
2024-02-02T06:16:24.443Z,101553.03
2024-02-02T06:18:51.607Z,101539.63
2024-02-02T06:21:18.804Z,101548.97
2024-02-02T06:23:45.850Z,101556.50
2024-02-02T06:26:12.552Z,101553.03
2024-02-02T06:28:39.223Z,101531.31
2024-02-02T06:31:06.201Z,101548.78
2024-02-02T06:33:32.985Z,101562.34
2024-02-02T06:35:59.813Z,101565.81
2024-02-02T06:38:26.491Z,101567.44
2024-02-02T06:40:53.247Z,101552.19
2024-02-02T06:43:19.936Z,101542.00
2024-02-02T06:45:49.307Z,101541.91
2024-02-02T06:48:16.581Z,101560.53
2024-02-02T06:50:45.374Z,101550.38
2024-02-02T06:53:12.328Z,101569.75
2024-02-02T06:55:39.125Z,101557.09
2024-02-02T06:58:05.882Z,101554.53
2024-02-02T07:00:32.927Z,101551.09
2024-02-02T07:03:00.148Z,101547.53
2024-02-02T07:05:27.482Z,101539.81
2024-02-02T07:07:54.477Z,101530.44
2024-02-02T07:10:21.686Z,101557.50
2024-02-02T07:12:59.337Z,101534.66
2024-02-02T07:15:40.132Z,101529.41
2024-02-02T07:18:13.691Z,101546.25
2024-02-02T07:21:06.178Z,101584.38
2024-02-02T07:23:35.850Z,101558.84
2024-02-02T07:26:04.823Z,101548.56
2024-02-02T07:28:42.196Z,101547.69
2024-02-02T07:31:10.331Z,101554.59
2024-02-02T07:33:43.568Z,101544.41
2024-02-02T07:36:24.729Z,101556.19
2024-02-02T07:38:55.235Z,101562.78
2024-02-02T07:41:29.298Z,101562.75
2024-02-02T07:43:58.638Z,101548.44
2024-02-02T07:46:25.879Z,101549.88
2024-02-02T07:48:55.424Z,101558.28
2024-02-02T07:51:24.058Z,101548.06
2024-02-02T07:53:51.084Z,101559.91
2024-02-02T07:56:23.896Z,101551.34
2024-02-02T07:58:50.862Z,101538.75
2024-02-02T08:01:17.762Z,101542.75
2024-02-02T08:03:44.654Z,101537.41
2024-02-02T08:06:11.686Z,101529.00
2024-02-02T08:08:38.918Z,101543.16
2024-02-02T08:11:05.686Z,101527.63
2024-02-02T08:13:33.106Z,101516.41
2024-02-02T08:16:00.536Z,101532.34
2024-02-02T08:18:29.256Z,101520.53
2024-02-02T08:20:56.369Z,101522.88
2024-02-02T08:23:23.299Z,101532.97
2024-02-02T08:25:49.968Z,101560.75
2024-02-02T08:28:16.814Z,101542.03
2024-02-02T08:30:43.585Z,101516.50
2024-02-02T08:33:10.687Z,101526.75
2024-02-02T08:35:37.485Z,101512.91
2024-02-02T08:38:06.724Z,101506.19
2024-02-02T08:40:44.938Z,101492.22
2024-02-02T08:43:15.004Z,101516.44
2024-02-02T08:45:44.721Z,101513.59
2024-02-02T08:48:34.921Z,101511.94
2024-02-02T08:51:02.124Z,101477.66
2024-02-02T08:53:29.112Z,101496.47
2024-02-02T08:56:00.870Z,101494.84
2024-02-02T08:58:32.425Z,101455.59
2024-02-02T09:01:01.118Z,101481.00
2024-02-02T09:03:48.712Z,101464.41
2024-02-02T09:06:43.653Z,101464.16
2024-02-02T09:09:16.413Z,101453.69
2024-02-02T09:11:49.058Z,101452.78
2024-02-02T09:14:19.485Z,101431.34
2024-02-02T09:16:51.057Z,101414.56
2024-02-02T09:19:27.125Z,101432.59
2024-02-02T09:22:05.737Z,101418.44
2024-02-02T09:24:43.946Z,101431.94
2024-02-02T09:27:14.001Z,101425.16
2024-02-02T09:29:48.914Z,101424.44
2024-02-02T09:32:17.057Z,101427.81
2024-02-02T09:34:44.660Z,101446.44
2024-02-02T09:37:20.353Z,101448.03
2024-02-02T09:39:55.585Z,101431.66
2024-02-02T09:42:40.533Z,101420.34
2024-02-02T09:45:13.423Z,101434.47
2024-02-02T09:47:43.029Z,101402.69
2024-02-02T09:50:20.459Z,101397.63
2024-02-02T09:53:05.896Z,101382.34
2024-02-02T09:55:59.215Z,101381.75
2024-02-02T09:58:38.257Z,101407.78
2024-02-02T10:01:17.191Z,101406.06
2024-02-02T10:04:09.750Z,101393.88
2024-02-02T10:06:45.976Z,101405.78
2024-02-02T10:09:54.752Z,101375.88
2024-02-02T10:12:44.177Z,101383.50
2024-02-02T10:15:30.033Z,101352.81
2024-02-02T10:18:06.090Z,101359.53
2024-02-02T10:20:39.214Z,101341.00
2024-02-02T10:23:25.383Z,101333.59
2024-02-02T10:26:02.748Z,101333.38
2024-02-02T10:29:00.502Z,101349.00
2024-02-02T10:31:50.988Z,101341.56
2024-02-02T10:34:23.475Z,101327.19
2024-02-02T10:37:12.104Z,101329.22
2024-02-02T10:39:59.381Z,101324.75
2024-02-02T10:42:36.448Z,101321.09
2024-02-02T10:45:12.562Z,101326.34
2024-02-02T10:48:24.583Z,101327.75
2024-02-02T10:51:25.113Z,101306.38
2024-02-02T10:54:11.835Z,101308.94
2024-02-02T10:57:02.468Z,101306.94
2024-02-02T11:00:08.617Z,101292.28
2024-02-02T11:03:02.276Z,101304.47
2024-02-02T11:05:48.358Z,101276.50
2024-02-02T11:08:23.898Z,101276.09
2024-02-02T11:11:01.294Z,101263.38
2024-02-02T11:13:57.371Z,101268.19
2024-02-02T11:16:35.850Z,101267.66
2024-02-02T11:19:18.340Z,101262.72
2024-02-02T11:22:28.293Z,101255.94
2024-02-02T11:25:13.166Z,101263.56
2024-02-02T11:27:47.338Z,101259.13
2024-02-02T11:30:23.405Z,101237.88
2024-02-02T11:33:02.416Z,101238.16
2024-02-02T11:35:34.751Z,101230.13
2024-02-02T11:38:13.552Z,101229.31
2024-02-02T11:40:41.002Z,101220.19
2024-02-02T11:43:10.322Z,101221.38
2024-02-02T11:45:41.466Z,101224.66
2024-02-02T11:48:14.580Z,101225.28
2024-02-02T11:50:44.697Z,101216.31
2024-02-02T11:53:24.787Z,101209.50
2024-02-02T11:55:55.440Z,101209.59
2024-02-02T11:58:23.383Z,101206.91
2024-02-02T12:01:13.757Z,101194.72
2024-02-02T12:03:40.915Z,101184.34
2024-02-02T12:06:12.554Z,101194.66
2024-02-02T12:08:50.997Z,101170.63
2024-02-02T12:11:29.057Z,101179.94
2024-02-02T12:14:01.561Z,101175.44
2024-02-02T12:16:28.210Z,101173.69
2024-02-02T12:18:54.971Z,101161.91
2024-02-02T12:21:22.653Z,101158.53
2024-02-02T12:23:49.438Z,101161.72
2024-02-02T12:26:16.517Z,101148.59
2024-02-02T12:28:43.527Z,101146.84
2024-02-02T12:31:10.170Z,101160.91
2024-02-02T12:33:37.109Z,101139.63
2024-02-02T12:36:09.843Z,101146.38
2024-02-02T12:38:39.226Z,101131.06
2024-02-02T12:41:05.956Z,101139.69
2024-02-02T12:43:32.659Z,101134.50
2024-02-02T12:45:59.405Z,101141.63
2024-02-02T12:48:26.824Z,101139.59
2024-02-02T12:50:53.659Z,101132.66
2024-02-02T12:53:21.620Z,101136.06
2024-02-02T12:55:48.341Z,101124.22
2024-02-02T12:58:15.013Z,101137.50
2024-02-02T13:00:42.049Z,101129.06
2024-02-02T13:03:09.801Z,101120.22
2024-02-02T13:05:38.717Z,101111.88
2024-02-02T13:08:05.489Z,101116.75
2024-02-02T13:10:48.827Z,101097.41
2024-02-02T13:13:19.047Z,101104.50
2024-02-02T13:15:46.413Z,101085.72
2024-02-02T13:18:16.339Z,101076.44
2024-02-02T13:20:47.542Z,101093.91
2024-02-02T13:23:25.514Z,101087.38
2024-02-02T13:25:54.099Z,101075.47
2024-02-02T13:28:21.164Z,101067.22
2024-02-02T13:31:02.407Z,101061.25
2024-02-02T13:33:31.597Z,101070.53
2024-02-02T13:35:59.586Z,101070.53
2024-02-02T13:38:28.838Z,101060.50
2024-02-02T13:40:56.291Z,101065.22
2024-02-02T13:43:25.457Z,101046.69
2024-02-02T13:46:07.034Z,101048.63
2024-02-02T13:48:38.514Z,101030.75
2024-02-02T13:51:06.395Z,101025.41
2024-02-02T13:53:33.146Z,101016.56
2024-02-02T13:56:05.402Z,101028.81
2024-02-02T13:58:42.041Z,101032.63
2024-02-02T14:01:29.546Z,101048.00
2024-02-02T14:03:56.888Z,101030.81
2024-02-02T14:06:25.172Z,101020.56
2024-02-02T14:08:53.236Z,101039.25
2024-02-02T14:11:33.174Z,101023.13
2024-02-02T14:13:59.961Z,101020.78
2024-02-02T14:16:27.941Z,101018.28
2024-02-02T14:19:05.692Z,101032.78
2024-02-02T14:21:32.986Z,101028.19
2024-02-02T14:24:07.790Z,101014.25
2024-02-02T14:26:34.561Z,100986.31
2024-02-02T14:29:01.788Z,101014.25
2024-02-02T14:31:28.833Z,101012.19
2024-02-02T14:33:55.600Z,100999.50
2024-02-02T14:36:22.452Z,100980.94
2024-02-02T14:38:50.636Z,100979.78
2024-02-02T14:41:17.311Z,100987.19
2024-02-02T14:43:43.991Z,100976.25
2024-02-02T14:46:10.722Z,100989.91
2024-02-02T14:48:38.990Z,100945.34
2024-02-02T14:51:06.183Z,100968.91
2024-02-02T14:53:32.916Z,100958.50
2024-02-02T14:56:00.082Z,100955.09
2024-02-02T14:58:26.895Z,100954.28
2024-02-02T15:00:55.588Z,100959.47
2024-02-02T15:03:22.442Z,100950.97
2024-02-02T15:05:49.217Z,100947.91
2024-02-02T15:08:15.916Z,100928.63
2024-02-02T15:10:42.691Z,100925.16
2024-02-02T15:13:10.230Z,100932.84
2024-02-02T15:15:36.935Z,100920.31
2024-02-02T15:18:05.127Z,100915.63
2024-02-02T15:20:31.868Z,100907.19
2024-02-02T15:22:58.573Z,100915.63
2024-02-02T15:25:25.248Z,100906.41
2024-02-02T15:27:52.200Z,100903.06
2024-02-02T15:30:18.941Z,100917.69
2024-02-02T15:32:46.849Z,100925.59
2024-02-02T15:35:16.821Z,100905.31
2024-02-02T15:37:43.935Z,100914.94
2024-02-02T15:40:11.160Z,100920.81
2024-02-02T15:42:37.968Z,100912.53
2024-02-02T15:45:06.861Z,100921.03
2024-02-02T15:47:36.558Z,100921.09
2024-02-02T15:50:04.098Z,100921.84
2024-02-02T15:52:30.994Z,100897.06
2024-02-02T15:55:00.815Z,100916.47
2024-02-02T15:57:27.639Z,100902.81
2024-02-02T15:59:54.471Z,100919.16
2024-02-02T16:02:21.227Z,100908.16
2024-02-02T16:04:47.985Z,100908.97
2024-02-02T16:07:14.811Z,100920.34
2024-02-02T16:09:42.473Z,100892.19
2024-02-02T16:12:11.460Z,100892.84
2024-02-02T16:14:39.122Z,100910.63
2024-02-02T16:17:07.746Z,100891.53
2024-02-02T16:19:35.520Z,100904.16
2024-02-02T16:22:02.344Z,100895.81
2024-02-02T16:24:30.579Z,100894.16
2024-02-02T16:26:57.295Z,100882.88
2024-02-02T16:29:24.539Z,100891.97
2024-02-02T16:31:56.061Z,100890.16
2024-02-02T16:34:26.170Z,100877.59
2024-02-02T16:36:56.547Z,100847.34
2024-02-02T16:39:26.490Z,100857.13
2024-02-02T16:41:54.243Z,100853.63
2024-02-02T16:44:21.980Z,100855.41
2024-02-02T16:46:52.171Z,100834.81
2024-02-02T16:49:19.636Z,100828.72
2024-02-02T16:51:47.359Z,100849.13
2024-02-02T16:54:20.130Z,100838.94
2024-02-02T16:56:50.259Z,100843.09
2024-02-02T16:59:19.153Z,100815.91
2024-02-02T17:01:47.245Z,100831.88
2024-02-02T17:04:17.170Z,100836.47
2024-02-02T17:06:44.479Z,100824.50
2024-02-02T17:09:11.762Z,100823.44
2024-02-02T17:11:39.433Z,100832.09
2024-02-02T17:14:10.032Z,100848.97
2024-02-02T17:16:40.046Z,100867.59
2024-02-02T17:19:19.796Z,100871.03
2024-02-02T17:21:47.136Z,100882.19
2024-02-02T17:24:19.322Z,100907.94
2024-02-02T17:26:54.873Z,100911.69
2024-02-02T17:29:22.317Z,100911.41
2024-02-02T17:31:50.692Z,100908.56
2024-02-02T17:34:21.390Z,100901.25
2024-02-02T17:36:48.807Z,100907.94
2024-02-02T17:39:16.201Z,100914.97
2024-02-02T17:41:48.386Z,100905.09
2024-02-02T17:44:22.694Z,100911.03
2024-02-02T17:46:54.175Z,100920.63
2024-02-02T17:49:21.900Z,100941.91
2024-02-02T17:51:52.400Z,100952.31
2024-02-02T17:54:23.564Z,100930.63
2024-02-02T17:56:50.882Z,100914.38
2024-02-02T17:59:19.563Z,100928.81
2024-02-02T18:01:47.486Z,100899.78
2024-02-02T18:04:14.836Z,100920.59
2024-02-02T18:06:42.023Z,100932.22
2024-02-02T18:09:11.395Z,100906.25
2024-02-02T18:11:38.588Z,100931.88
2024-02-02T18:14:10.927Z,100931.31
2024-02-02T18:16:38.125Z,100935.16
2024-02-02T18:19:05.373Z,100950.34
2024-02-02T18:21:34.900Z,100931.69
2024-02-02T18:24:04.284Z,100926.44
2024-02-02T18:26:31.930Z,100927.22
2024-02-02T18:29:00.317Z,100941.56
2024-02-02T18:31:29.820Z,100936.19
2024-02-02T18:33:57.464Z,100935.88
2024-02-02T18:36:25.301Z,100934.28
2024-02-02T18:38:58.259Z,100926.84
2024-02-02T18:41:31.227Z,100938.59
2024-02-02T18:44:01.558Z,100935.44
2024-02-02T18:46:34.525Z,100933.22
2024-02-02T18:49:02.035Z,100914.19
2024-02-02T18:51:29.208Z,100923.38
2024-02-02T18:53:57.207Z,100941.72
2024-02-02T18:56:24.454Z,100903.38
2024-02-02T18:58:51.518Z,100915.28
2024-02-02T19:01:31.028Z,100907.28
2024-02-02T19:04:02.873Z,100898.31
2024-02-02T19:06:30.143Z,100910.16
2024-02-02T19:08:57.455Z,100912.03
2024-02-02T19:11:24.993Z,100913.63
2024-02-02T19:13:54.361Z,100937.50
2024-02-02T19:16:27.665Z,100932.38
2024-02-02T19:18:56.888Z,100919.72
2024-02-02T19:21:41.634Z,100911.53
2024-02-02T19:24:09.171Z,100932.31
2024-02-02T19:26:36.759Z,100934.72
2024-02-02T19:29:04.147Z,100920.19
2024-02-02T19:31:33.426Z,100939.91
2024-02-02T19:34:00.897Z,100941.03
2024-02-02T19:36:29.953Z,100955.03
2024-02-02T19:39:01.812Z,100945.13
2024-02-02T19:41:34.304Z,100953.28
2024-02-02T19:44:04.337Z,100949.91
2024-02-02T19:46:32.949Z,100937.56
2024-02-02T19:49:03.028Z,100957.84
2024-02-02T19:51:30.810Z,100953.50
2024-02-02T19:53:58.468Z,100948.81
2024-02-02T19:56:31.859Z,100952.72
2024-02-02T19:59:04.422Z,100960.63
2024-02-02T20:01:33.383Z,100968.25
2024-02-02T20:04:00.884Z,100958.53
2024-02-02T20:06:29.937Z,100946.91
2024-02-02T20:08:57.642Z,100957.72
2024-02-02T20:11:27.513Z,100939.16
2024-02-02T20:13:55.171Z,100943.31
2024-02-02T20:16:22.544Z,100951.63
2024-02-02T20:18:51.050Z,100958.53
2024-02-02T20:21:20.338Z,100953.41
2024-02-02T20:23:51.832Z,100973.72
2024-02-02T20:26:20.523Z,100956.69
2024-02-02T20:28:49.134Z,100956.31
2024-02-02T20:31:16.522Z,100952.16
2024-02-02T20:33:44.120Z,100977.66
2024-02-02T20:36:11.986Z,100966.31
2024-02-02T20:38:39.481Z,100973.09
2024-02-02T20:41:07.645Z,100958.31
2024-02-02T20:43:34.861Z,100967.13
2024-02-02T20:46:02.475Z,100970.69
2024-02-02T20:48:29.800Z,100958.47
2024-02-02T20:50:57.191Z,100965.56
2024-02-02T20:53:24.552Z,100967.66
2024-02-02T20:55:52.214Z,100977.16
2024-02-02T20:58:22.314Z,100944.16
2024-02-02T21:00:49.874Z,100968.03
2024-02-02T21:03:24.039Z,100960.44
2024-02-02T21:05:51.423Z,100960.19
2024-02-02T21:08:21.836Z,100936.78
2024-02-02T21:10:57.670Z,100942.53
2024-02-02T21:13:27.120Z,100962.09
2024-02-02T21:15:56.468Z,100959.22
2024-02-02T21:18:25.086Z,100961.31
2024-02-02T21:20:54.436Z,100965.47
2024-02-02T21:23:21.605Z,100967.88
2024-02-02T21:25:48.744Z,100951.06
2024-02-02T21:28:16.650Z,100957.91
2024-02-02T21:30:45.062Z,100972.25
2024-02-02T21:33:17.737Z,100962.69
2024-02-02T21:35:49.412Z,100965.09
2024-02-02T21:38:16.723Z,100956.72
2024-02-02T21:40:43.833Z,100955.34
2024-02-02T21:43:16.501Z,100953.50
2024-02-02T21:45:43.706Z,100945.94
2024-02-02T21:48:12.210Z,100952.38
2024-02-02T21:50:43.192Z,100940.22
2024-02-02T21:53:18.181Z,100920.69
2024-02-02T21:55:51.105Z,100948.69
2024-02-02T21:58:23.755Z,100939.41
2024-02-02T22:00:54.114Z,100929.41
2024-02-02T22:03:21.200Z,100947.34
2024-02-02T22:05:50.554Z,100924.34
2024-02-02T22:08:17.668Z,100939.81
2024-02-02T22:10:45.181Z,100915.91
2024-02-02T22:13:12.533Z,100914.41
2024-02-02T22:15:42.056Z,100932.44
2024-02-02T22:18:12.341Z,100930.03
2024-02-02T22:20:39.423Z,100942.00
2024-02-02T22:23:07.357Z,100939.38
2024-02-02T22:25:36.269Z,100925.81
2024-02-02T22:28:07.241Z,100910.28
2024-02-02T22:30:34.555Z,100915.41
2024-02-02T22:33:04.685Z,100895.88
2024-02-02T22:35:37.950Z,100898.63
2024-02-02T22:38:05.469Z,100908.97
2024-02-02T22:40:33.571Z,100910.84
2024-02-02T22:43:01.180Z,100895.75
2024-02-02T22:45:37.556Z,100923.41
2024-02-02T22:48:05.656Z,100906.53
2024-02-02T22:50:38.107Z,100930.19
2024-02-02T22:53:07.500Z,100932.16
2024-02-02T22:55:37.834Z,100922.25
2024-02-02T22:58:08.659Z,100905.00
2024-02-02T23:00:45.421Z,100905.22
2024-02-02T23:03:14.949Z,100939.94
2024-02-02T23:05:47.011Z,100934.00
2024-02-02T23:08:14.382Z,100927.38
2024-02-02T23:10:44.292Z,100932.28
2024-02-02T23:13:11.441Z,100906.19
2024-02-02T23:15:42.141Z,100917.28
2024-02-02T23:18:09.490Z,100928.19
2024-02-02T23:20:38.214Z,100925.72
2024-02-02T23:23:13.475Z,100932.56
2024-02-02T23:25:42.664Z,100930.00
2024-02-02T23:28:09.986Z,100917.81
2024-02-02T23:30:39.677Z,100916.16
2024-02-02T23:33:06.981Z,100922.09
2024-02-02T23:35:34.106Z,100910.50
2024-02-02T23:38:01.586Z,100923.75
2024-02-02T23:40:34.265Z,100922.25
2024-02-02T23:43:06.695Z,100919.75
2024-02-02T23:45:33.802Z,100919.53
2024-02-02T23:48:01.003Z,100912.91
2024-02-02T23:50:28.502Z,100912.75
2024-02-02T23:53:05.274Z,100895.78
2024-02-02T23:55:39.782Z,100910.00
2024-02-02T23:58:13.045Z,100910.06
